Pagina principale
METAR-TAF:

METAR-TAF

Aeroporti :

Aeroporto di Hannover-Langenhagen

Hannover, Germania

latitudine: 52-28N, longitudine: 009-41E, altezza: 56 m

Osservazione

Il bollettino è stato emesso 36 minuti fa, alle 12:50 UTC
Vento 4 kt da ovest, variando fra sud e nord/nord-ovest
Temperature 31°C
Umidità 36%
Pressione 1020 hPa
Visibilità 10 km o più
nessuna nube inferiore a 1500 m e nessun cumulonembo

METAR: EDDV 231250Z 27004KT 180V330 CAVOK 31/14 Q1020 NOSIG

Ora: 15:26 (13:26 UTC)

Previsione

Il bollettino è stato emesso 2 ore e 26 minuti fa, alle 11:00 UTC
Previsione valida dal 23 alle 12 UTC al 24 alle 12 UTC
Vento 5 kt da ovest
Visibilità 10 km o più
nessuna nube inferiore a 1500 m e nessun cumulonembo
Evoluzione graduale
dal 23 alle 16 UTC al 23 alle 18 UTC
Vento 4 kt da nord/nord-est
Evoluzione graduale
dal 24 alle 05 UTC al 24 alle 07 UTC
Vento 6 kt da est/sud-est

TAF: EDDV 231100Z 2312/2412 28005KT CAVOK BECMG 2316/2318 03004KT BECMG 2405/2407 12006KT

Osservazioni e previsioni meteorologiche di più di 4000 aeroporti (messaggi METAR e TAF).

Le stazioni disponibili sono rappresentate dai dischi gialli e rossi sulla carta.

Puntare il mouse per vedere il nome della stazione.

Clicca sopra per visualizzare le osservazioni e previsioni meteorologiche.

Per cambiare la mappa : fare clic sui pulsanti verdi con una croce nera per ingrandire, il pulsante verde con un trattino per diminuire, o sulla freccia verde per le mappe adiacenti.


METAR-TAF: